Low Mountain, Arizona
Current Conditions -  °F | °C
As of 3:53 AM on Wednesday 26 Nov 2014 (Local Time) from KGUP Reporting Station
Clear Clear  
Wind Chill: 18°   Ceiling: Unl
Heat Index: 18°   Visibility: 10mi
Dew Point: -1°   Wind: 0mph
Humidity: 44%   Direction: NA
Pressure: 30.38"   Gusts: NA
Location:  36.1012°N, 109.584°W
Report Text: KGUP 261053Z AUTO 00000KT 10SM CLR M08/M18 A3038 RMK AO2 SLP299 T10781183
Loading
Personal Weather Stations






























Interactive Weather Map New forecast layout! Learn more

10-Day Weather Forecast

Advertisements
Track Severe Weather on mobile